CheckWX is a tool to help pilots better visualize weather data.  It is not intended as a substitute for an official pre-flight weather briefing.

10:05:11 UTC

EPKS TAF
Krzesiny Military Air Base Airport
Poland
TAF AMD EPKS 070548Z 0706/0715 22010KT 6000 BKN010 OVC015 TEMPO 0706/0710 4000 RA OVC006 BECMG 0710/0711 22010G20KT 4000 RA BKN006 OVC015 PROB30 TEMPO 0712/0715 22015G25KT 3000 SHRA BKN006 OVC010CB

Dec-7@
06:00 UTC

Dec-7 @ 06:00 UTC

Dec-7@
10:00 UTC

Dec-7 @ 10:00 UTC

TAF AMD EPKS 070548Z 0706/0715 22010KT 6000 BKN010 OVC015

Expired

Wind
  • 220° at 10 KTS
Cloud Levels
  • Broken at 1,000' AGL
  • Overcast at 1,500' AGL

Dec-7@
06:00 UTC

Dec-7 @ 06:00 UTC

Dec-7@
10:00 UTC

Dec-7 @ 10:00 UTC

TEMPO 0706/0710 4000 RA OVC006

Expired

Conditions
Rain
Cloud Levels
  • Overcast at 600' AGL

Dec-7@
10:00 UTC

Dec-7 @ 10:00 UTC

Dec-7@
15:00 UTC

Dec-7 @ 15:00 UTC

BECMG 0710/0711 22010G20KT 4000 RA BKN006 OVC015

Becoming

Becoming Conditions expected by Sat, Dec 7, 2019 @ 11:00 UTC

Wind
  • 220° at 10 KTS
  • {Gusting to 20 KTS
Conditions
Rain
Cloud Levels
  • Broken at 600' AGL
  • Overcast at 1,500' AGL

Dec-7@
12:00 UTC

Dec-7 @ 12:00 UTC

Dec-7@
15:00 UTC

Dec-7 @ 15:00 UTC

PROB30 TEMPO 0712/0715 22015G25KT 3000 SHRA BKN006 OVC010CB

Temporary - 30% Likelihood

Temporary - 30% Likelihood during this time.

Wind
  • 220° at 15 KTS
  • {Gusting to 25 KTS
Conditions
Rain
Cloud Levels
  • Broken at 600' AGL
  • Overcast at 1,000' AGL